createdAt,value
2022-08-17T00:00:43.957Z,3.58
2022-08-17T00:03:37.957Z,3.20
2022-08-17T00:06:27.968Z,3.50
2022-08-17T00:09:18.204Z,3.50
2022-08-17T00:12:40.360Z,3.40
2022-08-17T00:15:13.466Z,3.35
2022-08-17T00:17:59.272Z,2.75
2022-08-17T00:20:45.186Z,2.58
2022-08-17T00:23:30.970Z,3.05
2022-08-17T00:26:43.732Z,2.97
2022-08-17T00:29:24.708Z,2.85
2022-08-17T00:33:13.959Z,3.08
2022-08-17T00:35:18.488Z,2.80
2022-08-17T00:38:06.362Z,2.90
2022-08-17T00:41:02.011Z,3.20
2022-08-17T00:44:04.101Z,3.75
2022-08-17T00:46:50.253Z,3.38
2022-08-17T00:49:36.114Z,2.85
2022-08-17T00:52:25.775Z,2.80
2022-08-17T00:55:11.904Z,3.17
2022-08-17T00:57:59.272Z,3.45
2022-08-17T01:00:47.407Z,2.85
2022-08-17T01:03:33.493Z,2.80
2022-08-17T01:06:20.706Z,2.83
2022-08-17T01:09:08.983Z,3.15
2022-08-17T01:11:55.047Z,3.15
2022-08-17T01:14:41.177Z,3.03
2022-08-17T01:17:29.058Z,2.97
2022-08-17T01:20:15.121Z,3.08
2022-08-17T01:23:01.729Z,2.83
2022-08-17T01:25:54.373Z,2.90
2022-08-17T01:28:54.560Z,3.00
2022-08-17T01:31:45.921Z,3.00
2022-08-17T01:34:37.400Z,2.97
2022-08-17T01:37:34.491Z,3.17
2022-08-17T01:40:34.831Z,2.78
2022-08-17T01:43:31.368Z,2.97
2022-08-17T01:46:23.801Z,3.10
2022-08-17T01:49:11.613Z,3.03
2022-08-17T01:51:57.776Z,3.22
2022-08-17T01:54:47.754Z,3.25
2022-08-17T01:57:33.564Z,3.40
2022-08-17T02:00:19.357Z,3.30
2022-08-17T02:03:05.406Z,4.00
2022-08-17T02:05:53.269Z,2.97
2022-08-17T02:09:01.672Z,3.17
2022-08-17T02:11:46.274Z,2.83
2022-08-17T02:14:32.276Z,3.53
2022-08-17T02:17:18.164Z,3.35
2022-08-17T02:20:04.886Z,2.90
2022-08-17T02:22:51.151Z,3.33
2022-08-17T02:25:39.166Z,3.15
2022-08-17T02:28:25.072Z,3.20
2022-08-17T02:31:12.921Z,2.80
2022-08-17T02:34:03.837Z,2.53
2022-08-17T02:36:53.424Z,2.90
2022-08-17T02:39:39.391Z,3.20
2022-08-17T02:42:28.354Z,2.88
2022-08-17T02:45:17.306Z,3.17
2022-08-17T02:48:03.850Z,3.33
2022-08-17T02:50:50.099Z,3.33
2022-08-17T02:53:36.446Z,3.30
2022-08-17T02:56:22.561Z,3.05
2022-08-17T02:59:08.628Z,2.80
2022-08-17T03:01:54.825Z,3.78
2022-08-17T03:04:40.557Z,2.80
2022-08-17T03:07:26.594Z,2.75
2022-08-17T03:10:13.640Z,2.90
2022-08-17T03:12:59.941Z,2.90
2022-08-17T03:15:47.584Z,2.92
2022-08-17T03:18:33.727Z,3.10
2022-08-17T03:21:19.538Z,2.95
2022-08-17T03:24:09.098Z,3.05
2022-08-17T03:26:55.303Z,2.92
2022-08-17T03:29:41.529Z,2.78
2022-08-17T03:32:27.801Z,3.25
2022-08-17T03:35:16.070Z,2.90
2022-08-17T03:38:05.266Z,3.17
2022-08-17T03:40:56.941Z,3.40
2022-08-17T03:43:45.563Z,3.03
2022-08-17T03:46:49.882Z,3.53
2022-08-17T03:49:54.458Z,3.10
2022-08-17T03:52:58.852Z,3.60
2022-08-17T03:56:03.493Z,3.33
2022-08-17T03:58:50.220Z,2.78
2022-08-17T04:01:36.077Z,3.20
2022-08-17T04:04:28.017Z,3.47
2022-08-17T04:07:14.010Z,3.20
2022-08-17T04:10:00.008Z,3.38
2022-08-17T04:12:51.516Z,3.10
2022-08-17T04:15:38.102Z,3.28
2022-08-17T04:18:25.607Z,3.20
2022-08-17T04:21:11.757Z,3.35
2022-08-17T04:23:58.345Z,3.35
2022-08-17T04:26:53.903Z,2.92
2022-08-17T04:29:54.969Z,3.38
2022-08-17T04:33:00.818Z,2.83
2022-08-17T04:35:54.576Z,3.17
2022-08-17T04:38:42.120Z,2.85
2022-08-17T04:41:47.027Z,3.30
2022-08-17T04:44:37.012Z,3.95
2022-08-17T04:47:24.153Z,3.40
2022-08-17T04:50:10.278Z,3.33
2022-08-17T04:52:56.437Z,3.00
2022-08-17T04:55:43.099Z,3.67
2022-08-17T04:58:29.097Z,3.13
2022-08-17T05:01:16.885Z,3.40
2022-08-17T05:04:21.389Z,3.30
2022-08-17T05:07:23.437Z,3.67
2022-08-17T05:10:10.832Z,3.28
2022-08-17T05:13:00.871Z,3.30
2022-08-17T05:15:48.287Z,3.20
2022-08-17T05:18:35.051Z,3.08
2022-08-17T05:21:22.189Z,3.17
2022-08-17T05:24:16.728Z,3.72
2022-08-17T05:27:18.768Z,3.00
2022-08-17T05:30:05.249Z,3.42
2022-08-17T05:32:55.419Z,3.40
2022-08-17T05:35:44.098Z,3.50
2022-08-17T05:38:31.098Z,3.42
2022-08-17T05:41:17.484Z,3.25
2022-08-17T05:44:05.206Z,3.42
2022-08-17T05:46:54.366Z,3.00
2022-08-17T05:49:40.231Z,3.42
2022-08-17T05:52:32.205Z,3.50
2022-08-17T05:55:35.702Z,3.25
2022-08-17T05:58:27.876Z,3.28
2022-08-17T06:01:40.699Z,3.25
2022-08-17T06:05:02.388Z,3.25
2022-08-17T06:20:15.755Z,3.20
2022-08-17T06:23:10.209Z,3.35
2022-08-17T06:26:01.402Z,4.05
2022-08-17T06:28:56.912Z,3.83
2022-08-17T06:31:42.892Z,2.97
2022-08-17T06:34:29.897Z,2.92
2022-08-17T06:37:35.998Z,3.30
2022-08-17T06:40:48.217Z,3.30
2022-08-17T06:43:48.183Z,3.47
2022-08-17T06:46:39.727Z,3.50
2022-08-17T06:49:33.250Z,3.20
2022-08-17T06:52:55.530Z,3.42
2022-08-17T06:56:00.170Z,3.30
2022-08-17T06:58:46.173Z,3.30
2022-08-17T07:01:35.049Z,3.45
2022-08-17T07:04:24.425Z,3.63
2022-08-17T07:07:29.818Z,3.13
2022-08-17T07:10:16.398Z,3.47
2022-08-17T07:13:20.829Z,3.25
2022-08-17T07:16:26.268Z,3.53
2022-08-17T07:19:16.864Z,3.47
2022-08-17T07:22:16.926Z,3.33
2022-08-17T07:25:06.330Z,3.20
2022-08-17T07:27:55.962Z,3.20
2022-08-17T07:30:47.381Z,3.15
2022-08-17T07:33:36.779Z,3.58
2022-08-17T07:36:30.071Z,3.45
2022-08-17T07:39:26.325Z,3.15
2022-08-17T07:42:12.811Z,3.22
2022-08-17T07:45:18.892Z,3.10
2022-08-17T07:48:20.291Z,3.28
2022-08-17T07:51:15.745Z,3.30
2022-08-17T07:54:14.480Z,3.17
2022-08-17T07:57:08.953Z,3.47
2022-08-17T08:00:01.647Z,3.30
2022-08-17T08:05:52.918Z,3.42
2022-08-17T08:08:42.832Z,3.35
2022-08-17T08:11:34.966Z,3.30
2022-08-17T08:14:28.720Z,3.28
2022-08-17T08:17:24.337Z,2.50
2022-08-17T08:20:34.892Z,3.20
2022-08-17T08:23:23.554Z,3.00
2022-08-17T08:26:34.972Z,2.88
2022-08-17T08:29:29.811Z,3.17
2022-08-17T08:32:16.383Z,3.70
2022-08-17T08:35:17.853Z,2.75
2022-08-17T08:38:29.298Z,2.60
2022-08-17T08:41:26.290Z,3.42
2022-08-17T08:44:15.165Z,3.08
2022-08-17T08:47:01.317Z,3.15
2022-08-17T08:50:08.478Z,2.65
2022-08-17T08:53:33.041Z,2.58
2022-08-17T08:56:34.932Z,2.88
2022-08-17T08:59:24.169Z,2.75
2022-08-17T09:02:25.197Z,2.50
2022-08-17T09:05:20.460Z,2.60
2022-08-17T09:08:28.190Z,2.63
2022-08-17T09:12:02.428Z,2.63
2022-08-17T09:14:57.275Z,2.13
2022-08-17T09:18:30.412Z,2.55
2022-08-17T09:24:31.999Z,2.50
2022-08-17T09:27:21.524Z,3.40
2022-08-17T09:30:10.446Z,3.10
2022-08-17T09:33:00.266Z,2.70
2022-08-17T09:35:51.318Z,2.20
2022-08-17T09:38:49.158Z,2.85
2022-08-17T09:42:00.756Z,1.92
2022-08-17T09:44:58.805Z,1.88
2022-08-17T09:48:18.155Z,2.13
2022-08-17T09:51:07.409Z,2.08
2022-08-17T09:53:53.479Z,2.60
2022-08-17T09:57:25.888Z,2.38
2022-08-17T10:00:17.891Z,2.47
2022-08-17T10:03:28.720Z,2.88
2022-08-17T10:06:23.202Z,2.33
2022-08-17T10:09:22.866Z,2.30
2022-08-17T10:12:30.437Z,2.63
2022-08-17T10:15:34.626Z,2.72
2022-08-17T10:18:48.079Z,2.17
2022-08-17T10:22:00.958Z,2.17
2022-08-17T10:25:23.955Z,2.50
2022-08-17T10:28:20.131Z,2.53
2022-08-17T10:34:41.452Z,2.33
2022-08-17T10:37:53.568Z,2.38
2022-08-17T10:40:53.135Z,2.20
2022-08-17T10:43:54.434Z,2.15
2022-08-17T10:47:15.083Z,2.45
2022-08-17T10:50:39.423Z,2.35
2022-08-17T10:53:31.677Z,2.33
2022-08-17T10:56:23.912Z,2.28
2022-08-17T11:02:15.387Z,2.35
2022-08-17T11:05:06.952Z,2.20
2022-08-17T11:08:22.290Z,2.55
2022-08-17T11:11:50.966Z,2.20
2022-08-17T11:14:50.557Z,2.72
2022-08-17T11:17:41.496Z,2.47
2022-08-17T11:20:48.424Z,2.10
2022-08-17T11:23:47.012Z,1.98
2022-08-17T11:26:36.455Z,2.35
2022-08-17T11:29:34.377Z,2.47
2022-08-17T11:32:34.251Z,2.50
2022-08-17T11:35:20.653Z,2.70
2022-08-17T11:38:16.824Z,3.13
2022-08-17T11:41:35.317Z,5.00
2022-08-17T11:44:21.093Z,3.17
2022-08-17T11:48:26.556Z,6.35
2022-08-17T11:51:33.974Z,3.80
2022-08-17T11:55:07.726Z,5.88
2022-08-17T11:58:22.816Z,8.93
2022-08-17T12:01:37.119Z,2.72
2022-08-17T12:04:31.979Z,3.05
2022-08-17T12:07:23.218Z,2.92
2022-08-17T12:10:12.305Z,2.40
2022-08-17T12:13:13.818Z,4.97
2022-08-17T12:16:01.087Z,4.35
2022-08-17T12:18:58.850Z,3.50
2022-08-17T12:21:58.058Z,2.63
2022-08-17T12:24:55.725Z,3.65
2022-08-17T12:28:05.963Z,2.67
2022-08-17T12:30:54.916Z,3.83
2022-08-17T12:33:45.705Z,3.30
2022-08-17T12:36:33.245Z,4.55
2022-08-17T12:39:25.036Z,2.33
2022-08-17T12:42:27.345Z,2.40
2022-08-17T12:45:29.410Z,2.90
2022-08-17T12:48:23.182Z,3.05
2022-08-17T12:51:09.242Z,3.40
2022-08-17T12:53:55.617Z,5.55
2022-08-17T12:56:46.004Z,2.63
2022-08-17T12:59:34.051Z,2.80
2022-08-17T13:02:30.692Z,2.70
2022-08-17T13:05:25.347Z,2.42
2022-08-17T13:08:18.133Z,2.50
2022-08-17T13:11:24.926Z,2.63
2022-08-17T13:14:11.511Z,2.83
2022-08-17T13:17:00.449Z,2.72
2022-08-17T13:19:50.784Z,3.30
2022-08-17T13:22:44.517Z,2.72
2022-08-17T13:25:31.071Z,2.55
2022-08-17T13:28:36.169Z,2.60
2022-08-17T13:31:27.905Z,2.53
2022-08-17T13:34:33.555Z,2.92
2022-08-17T13:37:41.428Z,2.35
2022-08-17T13:40:32.458Z,2.45
2022-08-17T13:43:40.196Z,2.67
2022-08-17T13:46:33.140Z,4.47
2022-08-17T13:49:21.022Z,2.72
2022-08-17T13:52:32.177Z,2.97
2022-08-17T13:55:21.395Z,2.70
2022-08-17T13:58:08.131Z,2.35
2022-08-17T14:00:56.274Z,2.55
2022-08-17T14:03:42.426Z,2.20
2022-08-17T14:06:52.979Z,2.42
2022-08-17T14:09:50.672Z,3.47
2022-08-17T14:12:38.922Z,2.65
2022-08-17T14:15:56.210Z,2.22
2022-08-17T14:18:56.036Z,2.20
2022-08-17T14:21:38.699Z,2.08
2022-08-17T14:24:27.842Z,2.20
2022-08-17T14:27:14.890Z,3.13
2022-08-17T14:30:01.776Z,2.30
2022-08-17T14:32:52.088Z,2.30
2022-08-17T14:35:38.442Z,2.35
2022-08-17T14:38:24.987Z,2.42
2022-08-17T14:41:11.972Z,2.55
2022-08-17T14:43:59.496Z,2.10
2022-08-17T14:46:46.074Z,2.90
2022-08-17T14:49:35.909Z,2.20
2022-08-17T14:52:22.413Z,3.22
2022-08-17T14:55:09.414Z,2.00
2022-08-17T14:57:55.233Z,3.05
2022-08-17T15:00:43.050Z,2.15
2022-08-17T15:03:29.176Z,2.35
2022-08-17T15:06:16.443Z,2.50
2022-08-17T15:09:02.834Z,3.92
2022-08-17T15:11:48.876Z,2.17
2022-08-17T15:14:35.926Z,2.40
2022-08-17T15:17:22.539Z,2.53
2022-08-17T15:20:14.821Z,2.35
2022-08-17T15:23:00.732Z,2.60
2022-08-17T15:25:48.399Z,2.17
2022-08-17T15:28:36.379Z,2.65
2022-08-17T15:31:31.834Z,2.75
2022-08-17T15:34:18.898Z,3.42
2022-08-17T15:37:05.097Z,3.88
2022-08-17T15:39:51.732Z,3.60
2022-08-17T15:42:38.639Z,4.40
2022-08-17T15:45:28.376Z,4.03
2022-08-17T15:48:14.680Z,3.40
2022-08-17T15:51:01.153Z,3.30
2022-08-17T15:53:50.119Z,3.30
2022-08-17T15:56:36.414Z,2.80
2022-08-17T15:59:22.318Z,2.40
2022-08-17T16:03:13.363Z,2.78
2022-08-17T16:05:30.177Z,2.70
2022-08-17T16:08:21.168Z,2.60
2022-08-17T16:11:08.400Z,2.60
2022-08-17T16:13:54.760Z,2.72
2022-08-17T16:16:42.231Z,2.63
2022-08-17T16:19:28.377Z,3.90
2022-08-17T16:22:14.646Z,3.22
2022-08-17T16:25:07.488Z,3.13
2022-08-17T16:27:53.865Z,3.65
2022-08-17T16:30:41.303Z,5.10
2022-08-17T16:33:27.309Z,4.85
2022-08-17T16:36:13.317Z,4.18
2022-08-17T16:39:00.655Z,3.10
2022-08-17T16:41:46.645Z,3.20
2022-08-17T16:44:32.705Z,2.90
2022-08-17T16:47:19.562Z,3.70
2022-08-17T16:50:07.109Z,3.10
2022-08-17T16:53:03.130Z,4.00
2022-08-17T16:55:52.006Z,3.30
2022-08-17T16:58:41.031Z,4.40
2022-08-17T17:01:29.298Z,3.95
2022-08-17T17:04:17.462Z,4.25
2022-08-17T17:07:12.326Z,3.75
2022-08-17T17:09:59.972Z,4.40
2022-08-17T17:13:01.395Z,4.47
2022-08-17T17:15:53.836Z,4.63
2022-08-17T17:21:34.494Z,8.23
2022-08-17T18:01:16.538Z,6.32
2022-08-17T18:04:21.462Z,6.18
2022-08-17T18:07:13.654Z,4.93
2022-08-17T18:10:19.764Z,4.22
2022-08-17T18:13:37.210Z,4.07
2022-08-17T18:16:23.189Z,4.15
2022-08-17T18:19:14.461Z,4.10
2022-08-17T18:22:13.077Z,4.32
2022-08-17T18:25:01.272Z,4.50
2022-08-17T18:27:51.819Z,4.90
2022-08-17T18:30:37.830Z,4.47
2022-08-17T18:33:26.625Z,4.28
2022-08-17T18:36:14.481Z,4.38
2022-08-17T18:39:16.104Z,4.28
2022-08-17T18:42:06.854Z,4.80
2022-08-17T18:44:59.174Z,4.75
2022-08-17T18:47:54.272Z,4.63
2022-08-17T18:50:44.660Z,4.68
2022-08-17T18:53:38.426Z,4.38
2022-08-17T18:56:31.305Z,4.25
2022-08-17T18:59:51.193Z,4.70
2022-08-17T19:02:49.957Z,4.50
2022-08-17T19:05:39.287Z,4.40
2022-08-17T19:08:31.222Z,4.28
2022-08-17T19:11:24.026Z,5.07
2022-08-17T19:14:12.597Z,4.95
2022-08-17T19:17:14.113Z,5.00
2022-08-17T19:20:09.189Z,5.15
2022-08-17T19:23:27.737Z,5.00
2022-08-17T19:26:54.747Z,5.28
2022-08-17T19:29:34.401Z,4.80
2022-08-17T19:32:34.581Z,4.35
2022-08-17T19:35:22.225Z,4.50
2022-08-17T19:38:29.292Z,4.63
2022-08-17T19:41:23.013Z,5.40
2022-08-17T19:44:15.383Z,4.72
2022-08-17T19:47:11.691Z,4.72
2022-08-17T19:50:49.637Z,5.32
2022-08-17T19:54:05.493Z,6.85
2022-08-17T19:57:08.283Z,7.10
2022-08-17T20:00:18.308Z,6.13
2022-08-17T20:03:16.352Z,5.50
2022-08-17T20:06:12.960Z,4.90
2022-08-17T20:09:04.249Z,5.32
2022-08-17T20:11:59.101Z,5.20
2022-08-17T20:14:55.877Z,7.80
2022-08-17T20:17:47.731Z,5.90
2022-08-17T20:21:22.452Z,4.97
2022-08-17T20:24:40.661Z,5.68
2022-08-17T20:27:32.217Z,9.55
2022-08-17T20:30:37.638Z,6.30
2022-08-17T20:33:32.631Z,5.38
2022-08-17T20:36:24.323Z,6.13
2022-08-17T20:39:31.226Z,8.70
2022-08-17T20:42:19.940Z,6.95
2022-08-17T20:45:21.189Z,6.30
2022-08-17T20:48:36.473Z,9.13
2022-08-17T20:51:31.957Z,7.18
2022-08-17T20:54:17.863Z,6.35
2022-08-17T20:57:06.177Z,6.55
2022-08-17T21:00:16.068Z,4.97
2022-08-17T21:03:23.123Z,5.50
2022-08-17T21:06:17.591Z,4.97
2022-08-17T21:09:13.096Z,4.70
2022-08-17T21:12:04.491Z,4.70
2022-08-17T21:14:58.699Z,4.70
2022-08-17T21:18:03.779Z,4.53
2022-08-17T21:21:20.662Z,3.80
2022-08-17T21:24:52.705Z,4.70
2022-08-17T21:28:11.120Z,5.05
2022-08-17T21:31:06.697Z,4.90
2022-08-17T21:34:15.710Z,4.88
2022-08-17T21:37:20.005Z,4.78
2022-08-17T21:40:18.506Z,4.20
2022-08-17T21:43:20.123Z,3.97
2022-08-17T21:46:27.282Z,4.28
2022-08-17T21:49:16.602Z,4.15
2022-08-17T21:52:03.068Z,4.50
2022-08-17T21:55:22.628Z,4.22
2022-08-17T21:58:25.218Z,4.55
2022-08-17T22:01:38.936Z,4.40
2022-08-17T22:04:29.069Z,4.05
2022-08-17T22:07:15.592Z,4.60
2022-08-17T22:10:02.299Z,4.50
2022-08-17T22:13:17.123Z,4.50
2022-08-17T22:16:28.629Z,4.70
2022-08-17T22:19:17.801Z,4.63
2022-08-17T22:22:27.164Z,5.10
2022-08-17T22:25:20.836Z,4.85
2022-08-17T22:28:09.233Z,4.53
2022-08-17T22:31:04.406Z,4.60
2022-08-17T22:34:02.137Z,4.85
2022-08-17T22:36:48.443Z,4.70
2022-08-17T22:39:40.452Z,4.45
2022-08-17T22:42:28.625Z,4.53
2022-08-17T22:45:15.061Z,4.22
2022-08-17T22:48:02.208Z,4.57
2022-08-17T22:50:50.167Z,4.20
2022-08-17T22:53:55.099Z,4.25
2022-08-17T22:57:18.869Z,4.40
2022-08-17T23:00:05.627Z,4.30
2022-08-17T23:03:17.625Z,4.18
2022-08-17T23:06:10.130Z,3.95
2022-08-17T23:08:57.686Z,4.90
2022-08-17T23:11:50.003Z,4.18
2022-08-17T23:14:39.379Z,4.03
2022-08-17T23:17:25.582Z,5.18
2022-08-17T23:20:13.990Z,4.80
2022-08-17T23:23:00.253Z,4.22
2022-08-17T23:25:46.669Z,4.07
2022-08-17T23:28:37.003Z,4.38
2022-08-17T23:31:23.465Z,4.35
2022-08-17T23:34:13.856Z,4.50
2022-08-17T23:37:02.340Z,4.22
2022-08-17T23:39:48.557Z,4.78
2022-08-17T23:42:34.937Z,4.70
2022-08-17T23:45:21.140Z,4.60
2022-08-17T23:48:07.997Z,4.38
2022-08-17T23:50:55.484Z,4.35
2022-08-17T23:53:46.207Z,4.47
2022-08-17T23:56:33.576Z,4.40
2022-08-17T23:59:21.553Z,4.13
